Terminal Aerodrome Forecast
Issued by NWS

Home | Current Version | Previous Version | Text Only | Print | Product List | Glossary On
Versions: 1 2 3 4 5 6 7 8 9 10 11 12 13
000
FTUS45 KTFX 011700
TAFGTF
TAF
KGTF 011738Z 0118/0218 VRB05KT P6SM BKN250
     FM011900 08006KT P6SM SCT100 SCT250
     FM020300 10010KT P6SM SCT100 BKN250
     FM020900 18006KT P6SM SCT100 BKN250=

USA.gov is the U.S. government's official web portal to all federal, state and local government web resources and services.